createdAt,value
2024-02-29T00:02:17.669Z,16.77
2024-02-29T00:06:19.243Z,19.00
2024-02-29T00:10:20.712Z,17.70
2024-02-29T00:14:21.780Z,18.77
2024-02-29T00:18:22.896Z,19.67
2024-02-29T00:22:24.157Z,19.17
2024-02-29T00:26:25.393Z,18.97
2024-02-29T00:30:26.470Z,19.03
2024-02-29T00:34:30.748Z,19.00
2024-02-29T00:38:31.934Z,22.07
2024-02-29T00:42:33.318Z,23.73
2024-02-29T00:46:38.963Z,22.37
2024-02-29T00:50:39.975Z,23.43
2024-02-29T00:54:41.299Z,23.87
2024-02-29T00:58:42.432Z,24.87
2024-02-29T01:02:43.876Z,27.60
2024-02-29T01:06:45.084Z,28.33
2024-02-29T01:10:47.657Z,28.33
2024-02-29T01:14:48.791Z,27.47
2024-02-29T01:18:49.986Z,28.03
2024-02-29T01:22:51.619Z,29.57
2024-02-29T01:26:52.620Z,29.03
2024-02-29T01:30:53.668Z,27.03
2024-02-29T01:34:54.678Z,26.17
2024-02-29T01:38:55.719Z,27.43
2024-02-29T01:42:56.752Z,25.27
2024-02-29T01:46:57.890Z,27.00
2024-02-29T01:50:59.925Z,27.73
2024-02-29T01:55:03.462Z,26.23
2024-02-29T01:59:05.683Z,26.37
2024-02-29T02:03:06.802Z,29.47
2024-02-29T02:07:09.676Z,29.17
2024-02-29T02:11:10.946Z,26.53
2024-02-29T02:15:12.663Z,27.63
2024-02-29T02:19:14.020Z,24.57
2024-02-29T02:23:15.022Z,28.87
2024-02-29T02:27:16.193Z,27.20
2024-02-29T02:31:17.272Z,27.80
2024-02-29T02:35:18.441Z,27.97
2024-02-29T02:39:19.549Z,30.17
2024-02-29T02:43:20.700Z,27.10
2024-02-29T02:47:21.759Z,28.63
2024-02-29T02:51:27.074Z,27.90
2024-02-29T02:55:28.142Z,29.37
2024-02-29T02:59:29.160Z,29.10
2024-02-29T03:03:30.241Z,30.97
2024-02-29T03:07:31.373Z,32.13
2024-02-29T03:11:32.578Z,32.27
2024-02-29T03:15:33.724Z,32.67
2024-02-29T03:19:34.693Z,30.10
2024-02-29T03:23:35.868Z,31.23
2024-02-29T03:27:37.032Z,30.10
2024-02-29T03:31:38.389Z,29.87
2024-02-29T03:35:39.533Z,33.07
2024-02-29T03:39:40.735Z,32.47
2024-02-29T03:43:41.729Z,30.60
2024-02-29T03:47:42.880Z,31.17
2024-02-29T03:51:43.918Z,30.43
2024-02-29T03:55:48.521Z,30.60
2024-02-29T03:59:49.532Z,30.33
2024-02-29T04:03:50.717Z,33.17
2024-02-29T04:07:53.630Z,34.03
2024-02-29T04:11:54.786Z,33.47
2024-02-29T04:15:55.976Z,34.80
2024-02-29T04:19:56.952Z,38.83
2024-02-29T04:23:58.179Z,38.23
2024-02-29T04:27:59.445Z,38.17
2024-02-29T04:32:00.588Z,42.97
2024-02-29T04:36:02.059Z,42.27
2024-02-29T04:40:05.615Z,44.87
2024-02-29T04:44:08.136Z,43.80
2024-02-29T04:48:09.266Z,43.77
2024-02-29T04:52:10.667Z,45.40
2024-02-29T04:56:11.861Z,45.80
2024-02-29T05:00:13.662Z,53.07
2024-02-29T05:04:15.549Z,51.90
2024-02-29T05:08:16.779Z,47.73
2024-02-29T05:12:18.275Z,41.60
2024-02-29T05:16:21.402Z,39.50
2024-02-29T05:20:22.624Z,37.67
2024-02-29T05:24:23.791Z,41.40
2024-02-29T05:28:24.917Z,38.43
2024-02-29T05:32:25.949Z,44.37
2024-02-29T05:36:27.732Z,50.63
2024-02-29T05:40:28.933Z,66.00
2024-02-29T05:44:31.575Z,53.83
2024-02-29T05:48:34.661Z,53.07
2024-02-29T05:52:36.827Z,58.37
2024-02-29T05:56:38.062Z,55.70
2024-02-29T06:00:39.159Z,54.67
2024-02-29T06:04:40.616Z,54.63
2024-02-29T06:08:41.693Z,53.43
2024-02-29T06:12:43.297Z,54.47
2024-02-29T06:16:44.487Z,55.27
2024-02-29T06:20:45.458Z,54.03
2024-02-29T06:24:46.593Z,54.83
2024-02-29T06:28:47.676Z,56.57
2024-02-29T06:32:48.842Z,55.57
2024-02-29T06:36:50.079Z,58.60
2024-02-29T06:40:51.179Z,60.33
2024-02-29T06:44:53.179Z,58.40
2024-02-29T06:48:54.457Z,54.13
2024-02-29T06:52:58.053Z,60.57
2024-02-29T06:56:59.380Z,67.27
2024-02-29T07:01:01.646Z,60.53
2024-02-29T07:05:03.294Z,62.17
2024-02-29T07:09:04.359Z,62.97
2024-02-29T07:13:05.560Z,64.77
2024-02-29T07:17:06.879Z,64.97
2024-02-29T07:21:07.888Z,65.43
2024-02-29T07:25:09.595Z,63.27
2024-02-29T07:29:10.796Z,67.83
2024-02-29T07:33:11.779Z,64.20
2024-02-29T07:37:13.359Z,61.30
2024-02-29T07:41:14.917Z,56.00
2024-02-29T07:45:19.293Z,54.57
2024-02-29T07:49:19.462Z,49.53
2024-02-29T07:53:20.564Z,48.33
2024-02-29T07:57:21.759Z,49.87
2024-02-29T08:01:22.937Z,48.53
2024-02-29T08:05:25.146Z,47.83
2024-02-29T08:09:26.286Z,50.90
2024-02-29T08:13:27.359Z,52.20
2024-02-29T08:17:29.141Z,53.13
2024-02-29T08:21:32.153Z,45.20
2024-02-29T08:25:33.139Z,46.93
2024-02-29T08:29:34.139Z,49.30
2024-02-29T08:33:35.204Z,47.73
2024-02-29T08:37:36.487Z,44.00
2024-02-29T08:41:37.899Z,46.43
2024-02-29T08:45:39.365Z,42.67
2024-02-29T08:49:42.514Z,41.07
2024-02-29T08:53:43.637Z,38.83
2024-02-29T08:57:45.020Z,38.30
2024-02-29T09:01:46.689Z,37.70
2024-02-29T09:05:47.994Z,42.87
2024-02-29T09:09:51.124Z,40.67
2024-02-29T09:13:52.454Z,38.80
2024-02-29T09:17:53.711Z,39.70
2024-02-29T09:21:54.856Z,38.40
2024-02-29T09:25:56.081Z,38.13
2024-02-29T09:29:58.799Z,39.43
2024-02-29T09:34:00.244Z,36.47
2024-02-29T09:38:01.780Z,41.27
2024-02-29T09:46:10.286Z,40.37
2024-02-29T09:50:11.999Z,38.60
2024-02-29T09:54:18.017Z,42.27
2024-02-29T09:58:21.332Z,40.90
2024-02-29T10:02:23.777Z,42.93
2024-02-29T10:06:24.800Z,42.37
2024-02-29T10:10:26.048Z,40.57
2024-02-29T10:14:27.148Z,37.03
2024-02-29T10:18:33.930Z,38.50
2024-02-29T10:22:35.586Z,40.30
2024-02-29T10:26:36.844Z,40.73
2024-02-29T10:30:37.897Z,43.17
2024-02-29T10:34:40.547Z,44.07
2024-02-29T10:38:41.891Z,38.93
2024-02-29T10:42:43.640Z,41.93
2024-02-29T10:46:48.116Z,41.20
2024-02-29T10:51:02.009Z,38.63
2024-02-29T10:55:06.452Z,41.40
2024-02-29T10:59:08.400Z,38.17
2024-02-29T11:03:12.801Z,37.43
2024-02-29T11:07:14.535Z,36.73
2024-02-29T11:11:27.449Z,36.60
2024-02-29T11:15:28.756Z,34.80
2024-02-29T11:19:30.161Z,34.57
2024-02-29T11:23:38.538Z,34.77
2024-02-29T11:27:48.531Z,32.10
2024-02-29T11:31:57.319Z,29.87
2024-02-29T11:35:59.969Z,30.47
2024-02-29T11:40:06.750Z,29.07
2024-02-29T11:44:08.166Z,30.83
2024-02-29T11:48:09.262Z,33.97
2024-02-29T11:52:10.948Z,33.13
2024-02-29T11:56:16.004Z,31.10
2024-02-29T12:00:16.635Z,33.83
2024-02-29T12:04:17.838Z,34.07
2024-02-29T12:08:19.381Z,30.53
2024-02-29T12:12:21.331Z,33.23
2024-02-29T12:16:22.810Z,32.87
2024-02-29T12:20:23.970Z,32.07
2024-02-29T12:24:26.592Z,32.23
2024-02-29T12:28:30.854Z,27.27
2024-02-29T12:32:32.378Z,26.43
2024-02-29T12:36:33.548Z,30.70
2024-02-29T12:40:34.859Z,26.80
2024-02-29T12:44:37.632Z,29.60
2024-02-29T12:48:38.848Z,27.37
2024-02-29T12:52:39.938Z,27.10
2024-02-29T12:56:41.179Z,26.13
2024-02-29T13:00:42.863Z,25.27
2024-02-29T13:04:44.155Z,27.43
2024-02-29T13:08:45.628Z,23.97
2024-02-29T13:12:51.808Z,23.67
2024-02-29T13:16:50.027Z,23.00
2024-02-29T13:20:51.345Z,22.77
2024-02-29T13:24:52.805Z,21.70
2024-02-29T13:28:54.038Z,21.57
2024-02-29T13:32:55.082Z,20.57
2024-02-29T13:36:56.302Z,20.83
2024-02-29T13:40:57.260Z,21.40
2024-02-29T13:44:58.352Z,18.83
2024-02-29T13:49:20.311Z,20.50
2024-02-29T13:53:02.497Z,19.30
2024-02-29T13:57:03.751Z,18.10
2024-02-29T14:01:08.481Z,20.83
2024-02-29T14:05:08.330Z,20.53
2024-02-29T14:09:11.484Z,19.13
2024-02-29T14:13:12.663Z,18.80
2024-02-29T14:17:13.851Z,19.43
2024-02-29T14:21:19.521Z,16.40
2024-02-29T14:25:22.577Z,17.27
2024-02-29T14:29:23.571Z,19.20
2024-02-29T14:33:24.767Z,19.50
2024-02-29T14:37:26.162Z,20.57
2024-02-29T14:41:29.183Z,20.13
2024-02-29T14:45:30.423Z,21.03
2024-02-29T14:49:31.809Z,21.33
2024-02-29T14:53:33.694Z,21.00
2024-02-29T14:57:35.060Z,22.53
2024-02-29T15:01:36.160Z,22.53
2024-02-29T15:05:37.468Z,23.23
2024-02-29T15:09:39.374Z,22.63
2024-02-29T15:13:40.381Z,24.73
2024-02-29T15:17:41.901Z,23.10
2024-02-29T15:21:44.860Z,23.43
2024-02-29T15:25:47.553Z,24.47
2024-02-29T15:29:49.735Z,23.50
2024-02-29T15:33:50.830Z,24.97
2024-02-29T15:37:52.008Z,24.63
2024-02-29T15:41:53.237Z,23.13
2024-02-29T15:45:54.521Z,24.00
2024-02-29T15:49:56.289Z,25.30
2024-02-29T15:53:57.618Z,26.00
2024-02-29T15:57:59.076Z,25.50
2024-02-29T16:02:00.222Z,27.57
2024-02-29T16:06:01.557Z,26.37
2024-02-29T16:10:02.855Z,26.67
2024-02-29T16:14:04.440Z,27.03
2024-02-29T16:18:06.633Z,27.70
2024-02-29T16:22:07.683Z,26.50
2024-02-29T16:26:08.927Z,27.13
2024-02-29T16:30:10.398Z,26.60
2024-02-29T16:34:12.073Z,28.60
2024-02-29T16:38:13.285Z,27.73
2024-02-29T16:42:14.519Z,29.70
2024-02-29T16:46:17.387Z,28.20
2024-02-29T16:50:18.656Z,31.13
2024-02-29T16:54:20.155Z,27.53
2024-02-29T16:58:21.554Z,27.80
2024-02-29T17:02:22.744Z,27.80
2024-02-29T17:06:24.241Z,28.27
2024-02-29T17:10:25.354Z,29.23
2024-02-29T17:14:26.531Z,28.77
2024-02-29T17:18:27.873Z,27.27
2024-02-29T17:22:29.209Z,30.77
2024-02-29T17:26:31.396Z,28.97
2024-02-29T17:30:33.089Z,27.60
2024-02-29T17:34:34.100Z,29.43
2024-02-29T17:38:35.327Z,32.00
2024-02-29T17:42:36.564Z,31.20
2024-02-29T17:46:37.690Z,32.50
2024-02-29T17:50:39.753Z,33.53
2024-02-29T17:54:40.932Z,29.93
2024-02-29T17:58:42.071Z,35.43
2024-02-29T18:02:43.289Z,29.20
2024-02-29T18:06:44.353Z,34.50
2024-02-29T18:10:45.377Z,31.33
2024-02-29T18:14:46.420Z,31.20
2024-02-29T18:18:47.520Z,29.10
2024-02-29T18:22:49.647Z,33.67
2024-02-29T18:26:50.693Z,32.27
2024-02-29T18:30:51.745Z,28.07
2024-02-29T18:34:52.992Z,26.97
2024-02-29T18:38:55.352Z,26.73
2024-02-29T18:42:56.500Z,28.80
2024-02-29T18:47:00.081Z,42.50
2024-02-29T18:51:01.333Z,37.50
2024-02-29T18:55:02.550Z,31.20
2024-02-29T18:59:03.849Z,35.37
2024-02-29T19:03:04.886Z,34.40
2024-02-29T19:07:06.139Z,38.87
2024-02-29T19:11:07.385Z,39.97
2024-02-29T19:15:09.804Z,35.53
2024-02-29T19:19:13.227Z,34.70
2024-02-29T19:23:14.382Z,32.37
2024-02-29T19:27:15.529Z,35.20
2024-02-29T19:31:16.602Z,35.93
2024-02-29T19:35:17.719Z,35.93
2024-02-29T19:39:18.890Z,35.23
2024-02-29T19:43:21.986Z,39.67
2024-02-29T19:47:23.515Z,46.93
2024-02-29T19:51:24.675Z,38.03
2024-02-29T19:55:25.891Z,38.40
2024-02-29T19:59:27.060Z,41.00
2024-02-29T20:03:30.038Z,37.73
2024-02-29T20:07:31.127Z,40.83
2024-02-29T20:11:32.220Z,39.27
2024-02-29T20:15:33.272Z,40.83
2024-02-29T20:19:36.458Z,47.27
2024-02-29T20:23:37.292Z,39.87
2024-02-29T20:27:38.400Z,41.47
2024-02-29T20:31:39.531Z,45.17
2024-02-29T20:35:40.640Z,43.93
2024-02-29T20:39:41.653Z,48.80
2024-02-29T20:43:42.808Z,57.67
2024-02-29T20:47:45.068Z,50.47
2024-02-29T20:51:46.162Z,53.90
2024-02-29T20:55:47.179Z,48.80
2024-02-29T20:59:48.272Z,43.93
2024-02-29T21:03:50.101Z,41.63
2024-02-29T21:07:51.152Z,41.40
2024-02-29T21:16:03.330Z,42.20
2024-02-29T21:20:05.261Z,43.23
2024-02-29T21:24:06.477Z,41.27
2024-02-29T21:28:07.638Z,39.20
2024-02-29T21:32:08.852Z,37.30
2024-02-29T21:36:10.826Z,38.67
2024-02-29T21:40:12.565Z,39.57
2024-02-29T21:44:13.522Z,39.77
2024-02-29T21:48:14.633Z,44.97
2024-02-29T21:52:16.014Z,44.33
2024-02-29T21:56:17.106Z,40.00
2024-02-29T22:00:18.115Z,43.77
2024-02-29T22:04:19.410Z,42.77
2024-02-29T22:08:21.124Z,41.07
2024-02-29T22:12:22.265Z,42.10
2024-02-29T22:16:23.313Z,41.53
2024-02-29T22:20:24.364Z,40.80
2024-02-29T22:24:25.371Z,40.30
2024-02-29T22:28:26.435Z,42.20
2024-02-29T22:32:27.482Z,42.93
2024-02-29T22:36:28.567Z,41.40
2024-02-29T22:40:30.001Z,41.10
2024-02-29T22:44:33.335Z,46.53
2024-02-29T22:48:34.876Z,39.70
2024-02-29T22:52:36.079Z,50.35
2024-02-29T22:56:37.235Z,41.50
2024-02-29T23:00:39.280Z,39.70
2024-02-29T23:04:40.257Z,40.93
2024-02-29T23:08:41.845Z,42.07
2024-02-29T23:12:43.648Z,44.10
2024-02-29T23:16:44.763Z,39.87
2024-02-29T23:20:45.977Z,39.43
2024-02-29T23:24:47.405Z,39.83
2024-02-29T23:28:48.655Z,38.87
2024-02-29T23:32:49.991Z,39.63
2024-02-29T23:36:51.108Z,40.23
2024-02-29T23:40:52.252Z,40.83
2024-02-29T23:44:53.372Z,37.03
2024-02-29T23:48:54.536Z,42.60
2024-02-29T23:52:55.606Z,37.77
2024-02-29T23:56:57.727Z,37.80
